createdAt,value
2018-10-16T00:00:58.550Z,14.01
2018-10-16T00:03:27.003Z,14.02
2018-10-16T00:05:55.493Z,13.82
2018-10-16T00:08:23.913Z,13.77
2018-10-16T00:10:53.192Z,13.99
2018-10-16T00:13:21.645Z,13.82
2018-10-16T00:15:50.082Z,13.79
2018-10-16T00:18:18.488Z,14.15
2018-10-16T00:20:46.897Z,14.07
2018-10-16T00:23:15.391Z,13.94
2018-10-16T00:25:43.871Z,14.06
2018-10-16T00:28:12.416Z,13.96
2018-10-16T00:30:41.793Z,13.46
2018-10-16T00:33:10.261Z,13.68
2018-10-16T00:35:38.760Z,13.87
2018-10-16T00:38:07.211Z,13.87
2018-10-16T00:40:35.862Z,13.84
2018-10-16T00:43:04.408Z,13.62
2018-10-16T00:45:32.845Z,13.66
2018-10-16T00:48:01.247Z,13.65
2018-10-16T00:50:29.680Z,13.78
2018-10-16T00:52:58.116Z,13.77
2018-10-16T00:55:26.597Z,13.89
2018-10-16T00:57:55.090Z,14.12
2018-10-16T01:00:23.557Z,13.99
2018-10-16T01:02:52.077Z,13.66
2018-10-16T01:05:20.501Z,13.72
2018-10-16T01:07:49.173Z,13.70
2018-10-16T01:10:17.638Z,13.93
2018-10-16T01:12:46.053Z,14.05
2018-10-16T01:15:14.482Z,14.13
2018-10-16T01:17:42.924Z,14.19
2018-10-16T01:20:14.481Z,14.18
2018-10-16T01:22:43.505Z,14.10
2018-10-16T01:25:12.804Z,14.21
2018-10-16T01:27:41.437Z,14.24
2018-10-16T01:30:09.993Z,14.52
2018-10-16T01:32:38.924Z,14.64
2018-10-16T01:35:08.775Z,14.64
2018-10-16T01:37:37.284Z,14.54
2018-10-16T01:40:07.253Z,14.38
2018-10-16T01:42:35.829Z,14.62
2018-10-16T01:45:04.451Z,14.42
2018-10-16T01:47:33.161Z,14.88
2018-10-16T01:50:01.777Z,15.00
2018-10-16T01:52:30.378Z,14.93
2018-10-16T01:54:58.912Z,14.88
2018-10-16T01:57:27.413Z,15.33
2018-10-16T01:59:55.971Z,15.34
2018-10-16T02:02:24.537Z,15.40
2018-10-16T02:04:53.135Z,15.06
2018-10-16T02:07:21.736Z,15.31
2018-10-16T02:09:50.658Z,15.24
2018-10-16T02:12:19.199Z,15.12
2018-10-16T02:14:47.814Z,15.23
2018-10-16T02:17:16.357Z,15.43
2018-10-16T02:19:44.900Z,15.37
2018-10-16T02:22:13.397Z,15.37
2018-10-16T02:24:42.070Z,15.18
2018-10-16T02:27:10.685Z,14.85
2018-10-16T02:29:39.264Z,15.25
2018-10-16T02:32:07.835Z,14.85
2018-10-16T02:34:36.378Z,15.32
2018-10-16T02:37:05.261Z,15.27
2018-10-16T02:39:33.830Z,15.42
2018-10-16T02:42:02.434Z,15.37
2018-10-16T02:44:30.953Z,15.38
2018-10-16T02:46:59.531Z,15.24
2018-10-16T02:49:27.955Z,15.25
2018-10-16T02:51:56.401Z,15.40
2018-10-16T02:54:24.923Z,15.37
2018-10-16T02:56:53.869Z,15.53
2018-10-16T02:59:22.400Z,15.60
2018-10-16T03:01:50.906Z,15.56
2018-10-16T03:04:19.507Z,15.53
2018-10-16T03:06:48.044Z,15.60
2018-10-16T03:09:16.653Z,15.55
2018-10-16T03:11:45.140Z,15.59
2018-10-16T03:14:13.887Z,15.74
2018-10-16T03:16:42.552Z,15.74
2018-10-16T03:19:11.138Z,15.62
2018-10-16T03:21:39.851Z,15.67
2018-10-16T03:24:09.173Z,15.29
2018-10-16T03:26:38.118Z,15.66
2018-10-16T03:29:07.124Z,15.79
2018-10-16T03:31:35.760Z,15.67
2018-10-16T03:34:04.487Z,15.66
2018-10-16T03:36:33.045Z,15.65
2018-10-16T03:39:01.708Z,15.87
2018-10-16T03:41:30.339Z,16.08
2018-10-16T03:44:01.282Z,16.08
2018-10-16T03:46:30.252Z,16.14
2018-10-16T03:48:58.840Z,16.05
2018-10-16T03:51:27.399Z,16.05
2018-10-16T03:53:56.566Z,16.01
2018-10-16T03:56:25.881Z,15.97
2018-10-16T03:58:54.448Z,15.71
2018-10-16T04:01:24.296Z,15.76
2018-10-16T04:03:52.904Z,15.53
2018-10-16T04:06:21.903Z,15.68
2018-10-16T04:08:51.258Z,15.87
2018-10-16T04:11:20.040Z,16.02
2018-10-16T04:13:49.004Z,16.00
2018-10-16T04:16:18.080Z,16.00
2018-10-16T04:18:46.737Z,16.10
2018-10-16T04:21:15.369Z,16.08
2018-10-16T04:23:44.348Z,16.11
2018-10-16T04:26:13.317Z,16.24
2018-10-16T04:28:41.796Z,16.33
2018-10-16T04:31:12.404Z,16.10
2018-10-16T04:33:41.149Z,16.23
2018-10-16T04:36:09.728Z,16.38
2018-10-16T04:38:38.435Z,16.37
2018-10-16T04:41:06.924Z,16.35
2018-10-16T04:43:35.472Z,16.35
2018-10-16T04:46:03.885Z,16.29
2018-10-16T04:48:32.399Z,16.30
2018-10-16T04:51:00.901Z,16.15
2018-10-16T04:53:29.518Z,16.18
2018-10-16T04:55:58.110Z,16.24
2018-10-16T04:58:26.941Z,15.94
2018-10-16T05:00:55.575Z,16.01
2018-10-16T05:03:25.113Z,15.98
2018-10-16T05:05:55.298Z,16.15
2018-10-16T05:08:23.857Z,15.89
2018-10-16T05:10:52.483Z,15.92
2018-10-16T05:13:21.149Z,15.68
2018-10-16T05:15:49.611Z,15.69
2018-10-16T05:18:18.113Z,15.62
2018-10-16T05:20:46.606Z,15.78
2018-10-16T05:23:15.053Z,15.73
2018-10-16T05:25:43.652Z,15.79
2018-10-16T05:28:12.136Z,15.93
2018-10-16T05:30:40.749Z,15.70
2018-10-16T05:33:09.275Z,15.74
2018-10-16T05:35:37.757Z,15.62
2018-10-16T05:38:06.379Z,15.62
2018-10-16T05:40:34.898Z,15.26
2018-10-16T05:43:03.651Z,15.75
2018-10-16T05:45:33.952Z,15.64
2018-10-16T05:48:02.438Z,15.41
2018-10-16T05:50:31.904Z,15.61
2018-10-16T05:53:00.745Z,15.46
2018-10-16T05:55:29.353Z,15.14
2018-10-16T05:57:57.945Z,15.35
2018-10-16T06:00:36.333Z,15.13
2018-10-16T06:03:05.078Z,15.46
2018-10-16T06:05:33.782Z,15.93
2018-10-16T06:08:02.482Z,15.94
2018-10-16T06:10:31.460Z,16.20
2018-10-16T06:13:00.073Z,16.23
2018-10-16T06:15:28.618Z,16.37
2018-10-16T06:17:57.213Z,16.57
2018-10-16T06:20:25.758Z,16.76
2018-10-16T06:22:54.263Z,17.02
2018-10-16T06:25:22.820Z,17.31
2018-10-16T06:27:51.464Z,17.30
2018-10-16T06:30:20.987Z,17.39
2018-10-16T06:32:49.701Z,17.27
2018-10-16T06:35:18.488Z,17.45
2018-10-16T06:37:48.528Z,17.41
2018-10-16T06:40:18.355Z,17.95
2018-10-16T06:42:47.051Z,18.27
2018-10-16T06:45:16.527Z,18.53
2018-10-16T06:47:46.201Z,18.75
2018-10-16T06:50:15.907Z,19.05
2018-10-16T06:52:45.318Z,19.29
2018-10-16T06:55:14.228Z,19.42
2018-10-16T06:57:42.807Z,19.57
2018-10-16T07:00:11.479Z,19.95
2018-10-16T07:02:40.157Z,20.35
2018-10-16T07:05:08.965Z,20.35
2018-10-16T07:07:38.538Z,20.51
2018-10-16T07:10:08.860Z,20.13
2018-10-16T07:12:37.603Z,20.24
2018-10-16T07:15:07.735Z,20.27
2018-10-16T07:17:36.235Z,20.79
2018-10-16T07:20:05.631Z,21.08
2018-10-16T07:22:34.214Z,20.90
2018-10-16T07:25:02.854Z,21.56
2018-10-16T07:27:31.542Z,21.70
2018-10-16T07:30:00.212Z,22.02
2018-10-16T07:32:28.822Z,21.87
2018-10-16T07:34:57.399Z,22.29
2018-10-16T07:37:26.032Z,22.32
2018-10-16T07:39:54.568Z,22.13
2018-10-16T07:42:23.065Z,22.75
2018-10-16T07:44:51.629Z,22.50
2018-10-16T07:47:20.139Z,21.67
2018-10-16T07:49:48.674Z,22.40
2018-10-16T07:52:17.251Z,22.39
2018-10-16T07:54:45.758Z,22.58
2018-10-16T07:57:14.511Z,22.75
2018-10-16T07:59:43.161Z,22.24
2018-10-16T08:02:11.875Z,22.18
2018-10-16T08:04:40.397Z,22.49
2018-10-16T08:07:10.013Z,22.15
2018-10-16T08:09:39.722Z,22.28
2018-10-16T08:12:10.036Z,22.93
2018-10-16T08:14:39.089Z,22.33
2018-10-16T08:17:07.940Z,22.28
2018-10-16T08:19:36.602Z,22.08
2018-10-16T08:22:05.171Z,22.32
2018-10-16T08:24:33.702Z,21.92
2018-10-16T08:27:03.181Z,22.05
2018-10-16T08:29:31.728Z,22.27
2018-10-16T08:32:01.261Z,23.98
2018-10-16T08:34:29.766Z,26.14
2018-10-16T08:36:58.473Z,27.98
2018-10-16T08:39:29.593Z,29.82
2018-10-16T08:43:21.357Z,28.59
2018-10-16T08:46:01.253Z,28.35
2018-10-16T08:48:41.042Z,28.97
2018-10-16T08:51:20.670Z,28.49
2018-10-16T08:53:49.167Z,27.06
2018-10-16T08:56:17.784Z,26.09
2018-10-16T08:58:46.343Z,26.68
2018-10-16T09:01:14.962Z,25.80
2018-10-16T09:03:43.551Z,24.74
2018-10-16T09:06:12.133Z,25.45
2018-10-16T09:08:40.640Z,25.13
2018-10-16T09:11:09.246Z,25.01
2018-10-16T09:13:37.768Z,24.41
2018-10-16T09:16:06.314Z,25.42
2018-10-16T09:18:34.986Z,24.90
2018-10-16T09:21:03.504Z,25.40
2018-10-16T09:23:32.017Z,25.51
2018-10-16T09:26:00.537Z,25.92
2018-10-16T09:28:29.066Z,26.15
2018-10-16T09:30:57.851Z,25.86
2018-10-16T09:33:26.535Z,25.63
2018-10-16T09:35:55.028Z,26.64
2018-10-16T09:38:23.512Z,28.08
2018-10-16T09:40:52.104Z,29.07
2018-10-16T09:43:20.614Z,28.50
2018-10-16T09:45:49.086Z,29.41
2018-10-16T09:48:17.560Z,28.60
2018-10-16T09:50:46.049Z,28.28
2018-10-16T09:53:14.509Z,28.55
2018-10-16T09:55:43.033Z,27.67
2018-10-16T09:58:11.521Z,27.80
2018-10-16T10:00:45.357Z,27.60
2018-10-16T10:03:13.749Z,27.76
2018-10-16T10:05:42.275Z,29.08
2018-10-16T10:08:10.758Z,28.84
2018-10-16T10:10:39.369Z,30.15
2018-10-16T10:13:07.850Z,29.80
2018-10-16T10:15:36.395Z,29.69
2018-10-16T10:18:05.438Z,30.69
2018-10-16T10:20:33.975Z,30.48
2018-10-16T10:23:02.567Z,29.21
2018-10-16T10:25:31.057Z,27.36
2018-10-16T10:27:59.539Z,27.88
2018-10-16T10:30:28.217Z,29.70
2018-10-16T10:32:57.050Z,31.10
2018-10-16T10:35:25.749Z,30.45
2018-10-16T10:37:54.261Z,29.95
2018-10-16T10:40:22.857Z,30.02
2018-10-16T10:42:51.532Z,28.59
2018-10-16T10:45:20.214Z,28.79
2018-10-16T10:47:48.730Z,28.29
2018-10-16T10:50:17.523Z,28.45
2018-10-16T10:52:45.886Z,29.17
2018-10-16T10:55:14.342Z,28.01
2018-10-16T10:57:43.387Z,27.31
2018-10-16T11:00:21.894Z,27.25
2018-10-16T11:02:50.481Z,26.42
2018-10-16T11:05:19.012Z,26.23
2018-10-16T11:07:47.502Z,25.86
2018-10-16T11:10:16.072Z,25.67
2018-10-16T11:12:45.002Z,26.56
2018-10-16T11:15:13.613Z,26.00
2018-10-16T11:17:42.226Z,25.66
2018-10-16T11:20:12.659Z,25.81
2018-10-16T11:22:41.249Z,25.58
2018-10-16T11:25:11.335Z,26.10
2018-10-16T11:27:39.911Z,26.34
2018-10-16T11:30:11.994Z,25.85
2018-10-16T11:32:40.893Z,25.68
2018-10-16T11:35:10.547Z,25.77
2018-10-16T11:37:39.453Z,25.40
2018-10-16T11:40:08.484Z,25.15
2018-10-16T11:42:36.983Z,25.43
2018-10-16T11:45:06.570Z,24.90
2018-10-16T11:47:35.012Z,25.06
2018-10-16T11:50:03.580Z,25.38
2018-10-16T11:52:31.985Z,25.15
2018-10-16T11:55:00.480Z,25.15
2018-10-16T11:57:28.946Z,25.35
2018-10-16T11:59:57.536Z,25.21
2018-10-16T12:02:26.042Z,25.40
2018-10-16T12:04:54.444Z,25.60
2018-10-16T12:07:22.928Z,26.57
2018-10-16T12:09:51.439Z,26.96
2018-10-16T12:12:19.978Z,26.00
2018-10-16T12:14:48.401Z,26.11
2018-10-16T12:17:20.753Z,24.97
2018-10-16T12:19:52.461Z,25.77
2018-10-16T12:22:20.892Z,25.59
2018-10-16T12:24:49.430Z,25.00
2018-10-16T12:27:17.882Z,26.04
2018-10-16T12:29:46.440Z,25.70
2018-10-16T12:32:15.204Z,26.32
2018-10-16T12:34:43.640Z,26.80
2018-10-16T12:37:12.211Z,27.86
2018-10-16T12:39:40.704Z,29.55
2018-10-16T12:42:09.249Z,29.98
2018-10-16T12:44:38.538Z,28.69
2018-10-16T12:47:07.117Z,28.86
2018-10-16T12:49:35.727Z,28.71
2018-10-16T12:52:04.180Z,28.52
2018-10-16T12:54:32.644Z,27.76
2018-10-16T12:57:01.127Z,27.26
2018-10-16T12:59:29.602Z,26.92
2018-10-16T13:01:58.111Z,26.87
2018-10-16T13:04:26.524Z,27.31
2018-10-16T13:06:54.959Z,26.77
2018-10-16T13:09:23.461Z,26.75
2018-10-16T13:11:51.992Z,26.40
2018-10-16T13:14:20.452Z,25.75
2018-10-16T13:16:49.192Z,26.10
2018-10-16T13:19:17.656Z,25.69
2018-10-16T13:21:46.150Z,26.02
2018-10-16T13:24:14.720Z,24.98
2018-10-16T13:26:43.249Z,25.15
2018-10-16T13:29:11.799Z,25.44
2018-10-16T13:31:40.302Z,24.91
2018-10-16T13:34:08.896Z,25.04
2018-10-16T13:36:37.379Z,25.06
2018-10-16T13:39:07.607Z,25.41
2018-10-16T13:41:36.117Z,25.05
2018-10-16T13:44:04.604Z,25.93
2018-10-16T13:46:33.113Z,25.03
2018-10-16T13:49:01.632Z,24.78
2018-10-16T13:51:30.236Z,25.88
2018-10-16T13:53:58.833Z,25.66
2018-10-16T13:56:28.291Z,25.43
2018-10-16T13:58:56.756Z,24.79
2018-10-16T14:01:25.380Z,24.20
2018-10-16T14:03:54.040Z,24.86
2018-10-16T14:06:22.531Z,24.86
2018-10-16T14:08:51.113Z,24.31
2018-10-16T14:11:19.563Z,24.97
2018-10-16T14:13:48.160Z,24.45
2018-10-16T14:16:16.690Z,24.64
2018-10-16T14:18:45.164Z,24.87
2018-10-16T14:21:13.700Z,24.42
2018-10-16T14:23:42.255Z,24.02
2018-10-16T14:26:10.822Z,24.37
2018-10-16T14:28:39.392Z,24.50
2018-10-16T14:31:07.995Z,24.71
2018-10-16T14:33:36.625Z,24.16
2018-10-16T14:36:05.319Z,24.66
2018-10-16T14:38:33.947Z,24.73
2018-10-16T14:41:03.421Z,24.30
2018-10-16T14:43:32.148Z,24.60
2018-10-16T14:46:01.182Z,24.07
2018-10-16T14:48:29.684Z,24.48
2018-10-16T14:50:58.124Z,24.28
2018-10-16T14:53:26.572Z,23.86
2018-10-16T14:55:55.022Z,24.13
2018-10-16T14:58:23.491Z,23.47
2018-10-16T15:00:51.973Z,23.35
2018-10-16T15:03:20.421Z,23.95
2018-10-16T15:05:48.860Z,24.24
2018-10-16T15:08:17.520Z,24.81
2018-10-16T15:10:45.967Z,24.67
2018-10-16T15:13:14.337Z,24.83
2018-10-16T15:15:42.676Z,23.74
2018-10-16T15:18:11.076Z,24.96
2018-10-16T15:20:39.501Z,25.25
2018-10-16T15:23:07.927Z,24.68
2018-10-16T15:25:36.368Z,24.14
2018-10-16T15:28:04.955Z,24.47
2018-10-16T15:30:33.420Z,24.12
2018-10-16T15:33:01.764Z,24.77
2018-10-16T15:35:30.162Z,24.07
2018-10-16T15:37:58.570Z,23.48
2018-10-16T15:40:26.930Z,24.11
2018-10-16T15:42:55.288Z,24.07
2018-10-16T15:45:23.699Z,23.97
2018-10-16T15:47:52.160Z,23.37
2018-10-16T15:50:20.651Z,23.69
2018-10-16T15:52:49.167Z,23.87
2018-10-16T15:55:17.576Z,23.79
2018-10-16T15:57:46.038Z,23.84
2018-10-16T16:00:15.648Z,23.54
2018-10-16T16:02:44.058Z,23.81
2018-10-16T16:05:12.887Z,23.93
2018-10-16T16:07:41.537Z,23.81
2018-10-16T16:10:11.965Z,23.68
2018-10-16T16:12:40.378Z,23.84
2018-10-16T16:15:10.504Z,23.78
2018-10-16T16:17:38.945Z,23.46
2018-10-16T16:20:08.733Z,23.22
2018-10-16T16:22:37.080Z,23.13
2018-10-16T16:25:06.789Z,23.34
2018-10-16T16:27:35.448Z,23.13
2018-10-16T16:30:04.397Z,23.39
2018-10-16T16:32:32.884Z,22.85
2018-10-16T16:35:01.376Z,22.83
2018-10-16T16:37:29.913Z,22.66
2018-10-16T16:39:58.403Z,22.48
2018-10-16T16:42:26.802Z,22.57
2018-10-16T16:44:55.384Z,22.01
2018-10-16T16:47:23.809Z,22.14
2018-10-16T16:49:52.350Z,22.02
2018-10-16T16:52:20.888Z,21.88
2018-10-16T16:54:49.260Z,21.58
2018-10-16T16:57:17.805Z,21.11
2018-10-16T16:59:46.564Z,20.75
2018-10-16T17:02:15.034Z,20.68
2018-10-16T17:04:43.454Z,20.64
2018-10-16T17:07:11.880Z,20.65
2018-10-16T17:09:40.404Z,20.47
2018-10-16T17:12:08.787Z,20.23
2018-10-16T17:14:37.161Z,20.23
2018-10-16T17:17:05.684Z,20.18
2018-10-16T17:19:34.056Z,19.96
2018-10-16T17:22:02.516Z,20.00
2018-10-16T17:24:30.846Z,19.74
2018-10-16T17:26:59.291Z,19.70
2018-10-16T17:29:27.766Z,19.63
2018-10-16T17:31:56.282Z,19.81
2018-10-16T17:34:24.704Z,19.63
2018-10-16T17:36:53.105Z,19.90
2018-10-16T17:39:21.591Z,19.84
2018-10-16T17:41:50.020Z,20.01
2018-10-16T17:44:18.568Z,19.82
2018-10-16T17:46:47.107Z,19.77
2018-10-16T17:49:15.540Z,19.40
2018-10-16T17:51:43.933Z,19.84
2018-10-16T17:54:12.385Z,19.86
2018-10-16T17:56:40.852Z,20.01
2018-10-16T17:59:09.276Z,20.08
2018-10-16T18:01:37.696Z,20.14
2018-10-16T18:04:06.235Z,19.96
2018-10-16T18:06:34.615Z,19.93
2018-10-16T18:09:03.066Z,19.74
2018-10-16T18:11:31.422Z,19.61
2018-10-16T18:13:59.816Z,19.64
2018-10-16T18:16:28.276Z,19.99
2018-10-16T18:18:56.664Z,20.15
2018-10-16T18:21:25.157Z,19.95
2018-10-16T18:23:53.568Z,19.80
2018-10-16T18:26:21.921Z,20.03
2018-10-16T18:28:50.329Z,19.74
2018-10-16T18:31:18.736Z,19.49
2018-10-16T18:33:47.118Z,19.85
2018-10-16T18:36:15.524Z,19.99
2018-10-16T18:38:43.948Z,19.95
2018-10-16T18:41:12.385Z,20.06
2018-10-16T18:43:40.793Z,19.94
2018-10-16T18:46:09.399Z,19.65
2018-10-16T18:48:37.817Z,19.85
2018-10-16T18:51:06.257Z,19.91
2018-10-16T18:53:34.621Z,20.10
2018-10-16T18:56:02.979Z,19.96
2018-10-16T18:58:31.420Z,20.02
2018-10-16T19:00:59.864Z,20.01
2018-10-16T19:03:28.349Z,19.93
2018-10-16T19:05:56.788Z,20.21
2018-10-16T19:08:25.120Z,20.13
2018-10-16T19:10:53.577Z,19.94
2018-10-16T19:13:22.166Z,19.70
2018-10-16T19:15:50.492Z,19.90
2018-10-16T19:18:18.839Z,19.89
2018-10-16T19:20:47.221Z,19.75
2018-10-16T19:23:15.609Z,19.55
2018-10-16T19:25:44.016Z,19.49
2018-10-16T19:28:12.430Z,19.60
2018-10-16T19:30:40.957Z,19.64
2018-10-16T19:33:09.501Z,19.56
2018-10-16T19:35:38.084Z,19.50
2018-10-16T19:38:07.207Z,19.32
2018-10-16T19:40:35.676Z,19.26
2018-10-16T19:43:04.180Z,19.23
2018-10-16T19:45:32.685Z,19.13
2018-10-16T19:48:02.405Z,18.96
2018-10-16T19:50:31.073Z,19.07
2018-10-16T19:53:07.992Z,18.97
2018-10-16T19:55:36.656Z,18.85
2018-10-16T19:58:05.225Z,18.94
2018-10-16T20:00:33.620Z,18.62
2018-10-16T20:03:02.031Z,18.40
2018-10-16T20:05:30.370Z,18.56
2018-10-16T20:07:58.756Z,18.55
2018-10-16T20:10:27.145Z,18.32
2018-10-16T20:12:55.578Z,18.46
2018-10-16T20:15:24.901Z,18.27
2018-10-16T20:17:53.330Z,18.30
2018-10-16T20:20:21.733Z,18.30
2018-10-16T20:22:50.161Z,17.90
2018-10-16T20:25:18.655Z,18.10
2018-10-16T20:27:47.028Z,18.02
2018-10-16T20:30:15.423Z,17.74
2018-10-16T20:32:43.928Z,17.64
2018-10-16T20:35:12.300Z,17.73
2018-10-16T20:37:40.737Z,17.80
2018-10-16T20:40:09.219Z,17.78
2018-10-16T20:42:38.057Z,17.37
2018-10-16T20:45:06.652Z,17.32
2018-10-16T20:47:35.092Z,17.36
2018-10-16T20:50:03.413Z,17.29
2018-10-16T20:52:31.861Z,17.20
2018-10-16T20:55:00.246Z,17.22
2018-10-16T20:57:28.746Z,17.19
2018-10-16T20:59:57.440Z,17.13
2018-10-16T21:02:25.852Z,17.29
2018-10-16T21:04:54.299Z,17.50
2018-10-16T21:07:22.604Z,17.53
2018-10-16T21:09:51.033Z,17.57
2018-10-16T21:12:19.436Z,17.39
2018-10-16T21:14:47.744Z,17.47
2018-10-16T21:17:16.039Z,17.63
2018-10-16T21:19:44.379Z,17.85
2018-10-16T21:22:12.676Z,17.48
2018-10-16T21:24:41.002Z,17.46
2018-10-16T21:27:10.607Z,17.66
2018-10-16T21:29:38.930Z,17.81
2018-10-16T21:32:07.896Z,17.76
2018-10-16T21:34:36.210Z,17.65
2018-10-16T21:37:04.657Z,17.67
2018-10-16T21:39:32.939Z,17.60
2018-10-16T21:42:01.253Z,17.63
2018-10-16T21:44:30.278Z,17.49
2018-10-16T21:46:58.724Z,17.60
2018-10-16T21:49:27.034Z,17.33
2018-10-16T21:51:55.356Z,17.40
2018-10-16T21:54:23.660Z,17.39
2018-10-16T21:56:52.067Z,17.62
2018-10-16T21:59:20.536Z,17.49
2018-10-16T22:01:54.175Z,17.27
2018-10-16T22:04:22.547Z,17.30
2018-10-16T22:06:50.922Z,17.13
2018-10-16T22:09:19.267Z,17.35
2018-10-16T22:11:47.615Z,17.13
2018-10-16T22:14:15.979Z,17.02
2018-10-16T22:16:44.301Z,17.03
2018-10-16T22:19:12.742Z,16.80
2018-10-16T22:21:41.032Z,16.76
2018-10-16T22:24:09.376Z,16.85
2018-10-16T22:26:37.677Z,16.62
2018-10-16T22:29:06.013Z,16.56
2018-10-16T22:31:34.304Z,16.57
2018-10-16T22:34:02.629Z,16.44
2018-10-16T22:36:30.997Z,16.53
2018-10-16T22:38:59.343Z,16.57
2018-10-16T22:41:27.777Z,16.56
2018-10-16T22:43:56.065Z,16.32
2018-10-16T22:46:24.637Z,16.35
2018-10-16T22:48:53.013Z,16.09
2018-10-16T22:51:21.286Z,16.19
2018-10-16T22:53:49.597Z,16.03
2018-10-16T22:56:17.920Z,16.04
2018-10-16T22:58:46.247Z,15.95
2018-10-16T23:01:14.700Z,15.68
2018-10-16T23:03:43.076Z,15.70
2018-10-16T23:06:11.410Z,15.47
2018-10-16T23:08:39.793Z,15.80
2018-10-16T23:11:08.126Z,15.85
2018-10-16T23:13:36.400Z,15.86
2018-10-16T23:16:04.700Z,15.83
2018-10-16T23:18:33.039Z,15.81
2018-10-16T23:21:01.468Z,15.65
2018-10-16T23:23:30.131Z,15.90
2018-10-16T23:25:58.562Z,15.81
2018-10-16T23:28:26.980Z,15.70
2018-10-16T23:30:55.431Z,15.67
2018-10-16T23:33:23.832Z,15.75
2018-10-16T23:35:52.244Z,15.69
2018-10-16T23:38:20.719Z,15.80
2018-10-16T23:40:49.221Z,15.78
2018-10-16T23:43:17.811Z,15.63
2018-10-16T23:45:46.201Z,15.60
2018-10-16T23:48:14.660Z,15.68
2018-10-16T23:50:43.130Z,15.76
2018-10-16T23:53:11.577Z,15.75
2018-10-16T23:55:40.043Z,15.49
2018-10-16T23:58:08.438Z,15.39
